Terminal Aerodrome Forecast
Issued by NWS

Home | Current Version | Previous Version | Text Only | Print | Product List | Glossary On
Versions: 1 2 3 4 5 6 7 8 9 10 11 12 13 14 15 16 17 18 19
000
FTUS45 KBOI 051133
TAFJER
TAF
KJER 051133Z 0512/0612 25012KT P6SM SKC
     FM051800 24010KT P6SM SCT100 BKN200
     FM060400 09007KT P6SM BKN120
     FM060900 06012KT P6SM VCSH BKN080=

USA.gov is the U.S. government's official web portal to all federal, state and local government web resources and services.